sensor_id;sensor_type;location;lat;lon;timestamp;pressure;altitude;pressure_sealevel;temperature;humidity
5703;BME280;2876;51.738;10.050;2023-01-23T00:00:56;100900.28;;;1.81;100.00
5703;BME280;2876;51.738;10.050;2023-01-23T00:06:59;100911.72;;;1.69;100.00
5703;BME280;2876;51.738;10.050;2023-01-23T00:13:00;100909.72;;;1.85;100.00
5703;BME280;2876;51.738;10.050;2023-01-23T00:19:02;100913.84;;;1.89;99.91
5703;BME280;2876;51.738;10.050;2023-01-23T00:25:06;100906.84;;;1.75;100.00
5703;BME280;2876;51.738;10.050;2023-01-23T00:31:14;100906.88;;;1.88;100.00
5703;BME280;2876;51.738;10.050;2023-01-23T00:37:16;100915.53;;;1.90;99.44
5703;BME280;2876;51.738;10.050;2023-01-23T00:43:19;100916.63;;;2.00;99.34
5703;BME280;2876;51.738;10.050;2023-01-23T00:49:22;100921.78;;;1.89;99.52
5703;BME280;2876;51.738;10.050;2023-01-23T00:55:25;100930.25;;;1.94;99.59
5703;BME280;2876;51.738;10.050;2023-01-23T01:01:27;100929.81;;;1.75;99.81
5703;BME280;2876;51.738;10.050;2023-01-23T01:07:32;100935.84;;;1.90;99.91
5703;BME280;2876;51.738;10.050;2023-01-23T01:13:34;100937.47;;;2.05;99.82
5703;BME280;2876;51.738;10.050;2023-01-23T01:19:36;100951.59;;;1.78;100.00
5703;BME280;2876;51.738;10.050;2023-01-23T01:25:39;100947.84;;;1.95;99.84
5703;BME280;2876;51.738;10.050;2023-01-23T01:31:41;100945.34;;;1.80;100.00
5703;BME280;2876;51.738;10.050;2023-01-23T01:37:43;100950.44;;;1.83;100.00
5703;BME280;2876;51.738;10.050;2023-01-23T01:43:45;100955.13;;;1.92;100.00
5703;BME280;2876;51.738;10.050;2023-01-23T01:49:50;100948.13;;;2.03;100.00
5703;BME280;2876;51.738;10.050;2023-01-23T01:55:54;100949.63;;;2.08;100.00
5703;BME280;2876;51.738;10.050;2023-01-23T02:02:11;100967.59;;;1.90;100.00
5703;BME280;2876;51.738;10.050;2023-01-23T02:08:33;100971.72;;;1.94;100.00
5703;BME280;2876;51.738;10.050;2023-01-23T02:14:36;100972.25;;;1.99;100.00
5703;BME280;2876;51.738;10.050;2023-01-23T02:20:38;100971.56;;;2.10;100.00
5703;BME280;2876;51.738;10.050;2023-01-23T02:26:43;100971.44;;;2.11;99.86
5703;BME280;2876;51.738;10.050;2023-01-23T02:32:45;100973.25;;;2.11;100.00
5703;BME280;2876;51.738;10.050;2023-01-23T02:39:12;100980.09;;;2.13;99.86
5703;BME280;2876;51.738;10.050;2023-01-23T02:45:15;100980.19;;;1.99;100.00
5703;BME280;2876;51.738;10.050;2023-01-23T02:51:17;100978.03;;;2.18;99.82
5703;BME280;2876;51.738;10.050;2023-01-23T02:57:19;100998.09;;;1.95;99.61
5703;BME280;2876;51.738;10.050;2023-01-23T03:03:21;100995.53;;;1.94;100.00
5703;BME280;2876;51.738;10.050;2023-01-23T03:09:23;101007.00;;;2.07;99.89
5703;BME280;2876;51.738;10.050;2023-01-23T03:15:25;101006.69;;;2.12;99.44
5703;BME280;2876;51.738;10.050;2023-01-23T03:21:27;101005.47;;;1.90;99.72
5703;BME280;2876;51.738;10.050;2023-01-23T03:27:29;101008.16;;;2.03;99.40
5703;BME280;2876;51.738;10.050;2023-01-23T03:33:32;101015.75;;;1.95;99.38
5703;BME280;2876;51.738;10.050;2023-01-23T03:39:34;101011.19;;;1.84;99.68
5703;BME280;2876;51.738;10.050;2023-01-23T03:45:55;101021.66;;;1.86;99.83
5703;BME280;2876;51.738;10.050;2023-01-23T03:51:58;101026.84;;;1.87;99.87
5703;BME280;2876;51.738;10.050;2023-01-23T03:58:00;101034.47;;;1.92;99.39
5703;BME280;2876;51.738;10.050;2023-01-23T04:04:02;101028.03;;;1.96;99.26
5703;BME280;2876;51.738;10.050;2023-01-23T04:10:04;101035.34;;;1.92;99.72
5703;BME280;2876;51.738;10.050;2023-01-23T04:16:07;101042.53;;;2.03;98.62
5703;BME280;2876;51.738;10.050;2023-01-23T04:22:09;101038.00;;;2.05;98.42
5703;BME280;2876;51.738;10.050;2023-01-23T04:28:11;101034.78;;;1.87;98.61
5703;BME280;2876;51.738;10.050;2023-01-23T04:34:13;101028.97;;;1.95;98.76
5703;BME280;2876;51.738;10.050;2023-01-23T04:40:15;101033.88;;;2.01;97.74
5703;BME280;2876;51.738;10.050;2023-01-23T04:46:18;101041.13;;;1.85;98.16
5703;BME280;2876;51.738;10.050;2023-01-23T04:52:20;101037.56;;;1.71;98.92
5703;BME280;2876;51.738;10.050;2023-01-23T04:58:22;101036.47;;;1.88;99.17
5703;BME280;2876;51.738;10.050;2023-01-23T05:04:24;101037.38;;;1.74;99.94
5703;BME280;2876;51.738;10.050;2023-01-23T05:10:26;101036.16;;;1.93;99.74
5703;BME280;2876;51.738;10.050;2023-01-23T05:16:28;101033.22;;;1.97;98.97
5703;BME280;2876;51.738;10.050;2023-01-23T05:22:30;101039.25;;;1.99;98.43
5703;BME280;2876;51.738;10.050;2023-01-23T05:28:32;101040.47;;;1.81;99.50
5703;BME280;2876;51.738;10.050;2023-01-23T05:34:34;101032.16;;;1.87;99.71
5703;BME280;2876;51.738;10.050;2023-01-23T05:40:36;101049.81;;;1.99;98.54
5703;BME280;2876;51.738;10.050;2023-01-23T05:46:38;101044.00;;;1.94;98.45
5703;BME280;2876;51.738;10.050;2023-01-23T05:52:40;101055.88;;;2.01;97.63
5703;BME280;2876;51.738;10.050;2023-01-23T05:58:42;101051.16;;;1.80;98.02
5703;BME280;2876;51.738;10.050;2023-01-23T06:04:46;101044.66;;;1.71;97.69
5703;BME280;2876;51.738;10.050;2023-01-23T06:10:50;101053.84;;;1.65;97.84
5703;BME280;2876;51.738;10.050;2023-01-23T06:16:52;101063.13;;;1.58;98.08
5703;BME280;2876;51.738;10.050;2023-01-23T06:22:54;101080.41;;;1.49;97.90
5703;BME280;2876;51.738;10.050;2023-01-23T06:28:55;101100.47;;;1.39;97.60
5703;BME280;2876;51.738;10.050;2023-01-23T06:34:57;101104.78;;;1.40;98.22
5703;BME280;2876;51.738;10.050;2023-01-23T06:40:59;101108.00;;;1.31;97.77
5703;BME280;2876;51.738;10.050;2023-01-23T06:47:02;101114.72;;;1.22;97.62
5703;BME280;2876;51.738;10.050;2023-01-23T06:53:04;101126.78;;;1.26;98.64
5703;BME280;2876;51.738;10.050;2023-01-23T06:59:06;101130.56;;;1.22;98.67
5703;BME280;2876;51.738;10.050;2023-01-23T07:05:08;101134.44;;;1.31;98.81
5703;BME280;2876;51.738;10.050;2023-01-23T07:11:10;101141.44;;;1.46;98.68
5703;BME280;2876;51.738;10.050;2023-01-23T07:17:12;101150.31;;;1.45;98.87
5703;BME280;2876;51.738;10.050;2023-01-23T07:23:15;101153.38;;;1.66;98.82
5703;BME280;2876;51.738;10.050;2023-01-23T07:29:17;101156.50;;;1.59;98.53
5703;BME280;2876;51.738;10.050;2023-01-23T07:35:19;101156.97;;;1.65;98.97
5703;BME280;2876;51.738;10.050;2023-01-23T07:41:21;101162.00;;;1.97;98.13
5703;BME280;2876;51.738;10.050;2023-01-23T07:47:23;101161.94;;;1.84;98.89
5703;BME280;2876;51.738;10.050;2023-01-23T07:53:25;101170.25;;;1.92;98.96
5703;BME280;2876;51.738;10.050;2023-01-23T07:59:27;101184.28;;;2.07;99.02
5703;BME280;2876;51.738;10.050;2023-01-23T08:05:29;101179.34;;;2.15;98.57
5703;BME280;2876;51.738;10.050;2023-01-23T08:11:31;101180.50;;;2.11;98.00
5703;BME280;2876;51.738;10.050;2023-01-23T08:17:35;101185.00;;;2.23;98.86
5703;BME280;2876;51.738;10.050;2023-01-23T08:23:38;101197.09;;;2.40;98.48
5703;BME280;2876;51.738;10.050;2023-01-23T08:29:41;101205.22;;;2.51;98.53
5703;BME280;2876;51.738;10.050;2023-01-23T08:35:51;101216.47;;;2.68;98.05
5703;BME280;2876;51.738;10.050;2023-01-23T08:41:53;101219.88;;;2.70;97.99
5703;BME280;2876;51.738;10.050;2023-01-23T08:47:56;101224.59;;;2.92;97.17
5703;BME280;2876;51.738;10.050;2023-01-23T08:53:58;101220.56;;;2.99;96.46
5703;BME280;2876;51.738;10.050;2023-01-23T09:00:00;101219.53;;;3.14;95.38
5703;BME280;2876;51.738;10.050;2023-01-23T09:06:02;101228.63;;;2.97;95.64
5703;BME280;2876;51.738;10.050;2023-01-23T09:12:04;101241.16;;;2.95;95.10
5703;BME280;2876;51.738;10.050;2023-01-23T09:18:06;101250.56;;;2.99;94.98
5703;BME280;2876;51.738;10.050;2023-01-23T09:24:08;101249.94;;;3.09;94.33
5703;BME280;2876;51.738;10.050;2023-01-23T09:30:10;101255.59;;;3.29;94.99
5703;BME280;2876;51.738;10.050;2023-01-23T09:36:12;101259.41;;;3.25;93.57
5703;BME280;2876;51.738;10.050;2023-01-23T09:42:28;101275.53;;;3.35;93.15
5703;BME280;2876;51.738;10.050;2023-01-23T09:48:43;101263.13;;;3.48;92.10
5703;BME280;2876;51.738;10.050;2023-01-23T09:54:47;101268.44;;;3.74;92.32
5703;BME280;2876;51.738;10.050;2023-01-23T10:00:50;101268.72;;;3.95;90.62
5703;BME280;2876;51.738;10.050;2023-01-23T10:07:03;101267.81;;;3.83;90.38
5703;BME280;2876;51.738;10.050;2023-01-23T10:25:59;101251.09;;;4.06;89.55
5703;BME280;2876;51.738;10.050;2023-01-23T10:32:20;101258.50;;;4.14;89.75
5703;BME280;2876;51.738;10.050;2023-01-23T10:44:31;101248.09;;;4.48;88.57
5703;BME280;2876;51.738;10.050;2023-01-23T10:50:36;101261.97;;;4.75;87.57
5703;BME280;2876;51.738;10.050;2023-01-23T10:57:27;101255.59;;;4.54;86.13
5703;BME280;2876;51.738;10.050;2023-01-23T11:03:34;101253.22;;;4.62;86.53
5703;BME280;2876;51.738;10.050;2023-01-23T11:10:17;101251.97;;;4.79;86.33
5703;BME280;2876;51.738;10.050;2023-01-23T11:16:22;101253.75;;;5.02;85.94
5703;BME280;2876;51.738;10.050;2023-01-23T11:22:38;101257.31;;;5.25;84.47
5703;BME280;2876;51.738;10.050;2023-01-23T11:28:47;101258.78;;;5.18;84.38
5703;BME280;2876;51.738;10.050;2023-01-23T11:34:53;101249.34;;;5.25;84.03
5703;BME280;2876;51.738;10.050;2023-01-23T11:41:04;101247.06;;;5.32;83.73
5703;BME280;2876;51.738;10.050;2023-01-23T12:01:06;101249.38;;;4.42;86.65
5703;BME280;2876;51.738;10.050;2023-01-23T12:07:16;101245.59;;;4.33;85.85
5703;BME280;2876;51.738;10.050;2023-01-23T12:13:58;101232.13;;;4.24;87.09
5703;BME280;2876;51.738;10.050;2023-01-23T12:26:16;101224.56;;;3.94;88.79
5703;BME280;2876;51.738;10.050;2023-01-23T12:32:56;101220.63;;;3.99;88.53
5703;BME280;2876;51.738;10.050;2023-01-23T12:45:33;101212.59;;;3.88;89.79
5703;BME280;2876;51.738;10.050;2023-01-23T12:51:41;101209.72;;;3.91;89.60
5703;BME280;2876;51.738;10.050;2023-01-23T12:57:47;101201.66;;;3.80;89.59
5703;BME280;2876;51.738;10.050;2023-01-23T13:23:37;101217.78;;;3.90;89.05
5703;BME280;2876;51.738;10.050;2023-01-23T13:29:48;101220.94;;;3.95;89.08
5703;BME280;2876;51.738;10.050;2023-01-23T13:35:51;101218.94;;;3.98;89.49
5703;BME280;2876;51.738;10.050;2023-01-23T13:48:44;101231.31;;;3.74;89.59
5703;BME280;2876;51.738;10.050;2023-01-23T13:55:26;101251.22;;;3.92;88.85
5703;BME280;2876;51.738;10.050;2023-01-23T14:02:28;101248.72;;;3.52;89.94
5703;BME280;2876;51.738;10.050;2023-01-23T14:09:49;101248.69;;;3.27;91.14
5703;BME280;2876;51.738;10.050;2023-01-23T14:15:57;101249.75;;;3.12;91.92
5703;BME280;2876;51.738;10.050;2023-01-23T14:22:29;101246.13;;;3.00;92.77
5703;BME280;2876;51.738;10.050;2023-01-23T14:28:31;101258.06;;;2.80;93.71
5703;BME280;2876;51.738;10.050;2023-01-23T14:34:38;101258.50;;;2.87;93.72
5703;BME280;2876;51.738;10.050;2023-01-23T14:40:41;101250.56;;;2.87;93.96
5703;BME280;2876;51.738;10.050;2023-01-23T14:46:55;101258.19;;;2.51;95.90
5703;BME280;2876;51.738;10.050;2023-01-23T14:53:13;101270.09;;;2.44;97.15
5703;BME280;2876;51.738;10.050;2023-01-23T14:59:27;101281.22;;;2.37;97.11
5703;BME280;2876;51.738;10.050;2023-01-23T15:05:30;101294.06;;;2.28;98.13
5703;BME280;2876;51.738;10.050;2023-01-23T15:11:33;101290.91;;;2.36;98.71
5703;BME280;2876;51.738;10.050;2023-01-23T15:17:36;101290.09;;;2.21;99.11
5703;BME280;2876;51.738;10.050;2023-01-23T15:23:39;101291.06;;;2.20;99.86
5703;BME280;2876;51.738;10.050;2023-01-23T15:29:41;101301.19;;;2.14;99.68
5703;BME280;2876;51.738;10.050;2023-01-23T15:35:45;101290.50;;;2.15;100.00
5703;BME280;2876;51.738;10.050;2023-01-23T15:47:55;101292.97;;;2.04;100.00
5703;BME280;2876;51.738;10.050;2023-01-23T15:53:57;101295.41;;;2.07;100.00
5703;BME280;2876;51.738;10.050;2023-01-23T15:59:59;101292.97;;;2.04;100.00
5703;BME280;2876;51.738;10.050;2023-01-23T16:06:02;101292.31;;;2.00;100.00
5703;BME280;2876;51.738;10.050;2023-01-23T16:12:15;101295.72;;;2.02;100.00
5703;BME280;2876;51.738;10.050;2023-01-23T16:18:18;101293.34;;;2.12;100.00
5703;BME280;2876;51.738;10.050;2023-01-23T16:24:22;101298.47;;;1.87;100.00
5703;BME280;2876;51.738;10.050;2023-01-23T16:30:26;101302.41;;;2.08;100.00
5703;BME280;2876;51.738;10.050;2023-01-23T16:36:29;101291.66;;;1.97;100.00
5703;BME280;2876;51.738;10.050;2023-01-23T16:42:31;101292.78;;;1.93;100.00
5703;BME280;2876;51.738;10.050;2023-01-23T16:48:33;101292.69;;;2.23;100.00
5703;BME280;2876;51.738;10.050;2023-01-23T16:54:35;101306.38;;;2.15;100.00
5703;BME280;2876;51.738;10.050;2023-01-23T17:00:37;101303.91;;;2.26;100.00
5703;BME280;2876;51.738;10.050;2023-01-23T17:06:41;101312.75;;;2.40;99.79
5703;BME280;2876;51.738;10.050;2023-01-23T17:12:43;101313.06;;;2.35;99.96
5703;BME280;2876;51.738;10.050;2023-01-23T17:18:45;101304.25;;;2.35;99.58
5703;BME280;2876;51.738;10.050;2023-01-23T17:24:48;101302.38;;;2.37;99.31
5703;BME280;2876;51.738;10.050;2023-01-23T17:30:52;101305.03;;;2.22;100.00
5703;BME280;2876;51.738;10.050;2023-01-23T17:36:55;101309.19;;;2.41;99.62
5703;BME280;2876;51.738;10.050;2023-01-23T17:42:58;101310.47;;;2.48;99.50
5703;BME280;2876;51.738;10.050;2023-01-23T17:49:00;101311.47;;;2.33;98.73
5703;BME280;2876;51.738;10.050;2023-01-23T17:55:02;101321.94;;;2.34;97.85
5703;BME280;2876;51.738;10.050;2023-01-23T18:01:18;101318.16;;;2.38;97.98
5703;BME280;2876;51.738;10.050;2023-01-23T18:07:22;101315.78;;;2.48;97.63
5703;BME280;2876;51.738;10.050;2023-01-23T18:19:48;101326.00;;;2.40;97.48
5703;BME280;2876;51.738;10.050;2023-01-23T18:45:25;101326.59;;;2.31;98.61
5703;BME280;2876;51.738;10.050;2023-01-23T18:58:08;101326.09;;;2.38;98.21
5703;BME280;2876;51.738;10.050;2023-01-23T19:04:17;101327.91;;;2.38;97.81
5703;BME280;2876;51.738;10.050;2023-01-23T19:10:24;101327.06;;;2.37;98.48
5703;BME280;2876;51.738;10.050;2023-01-23T19:16:32;101320.81;;;2.38;98.22
5703;BME280;2876;51.738;10.050;2023-01-23T19:29:17;101329.03;;;2.34;98.44
5703;BME280;2876;51.738;10.050;2023-01-23T19:35:23;101325.47;;;2.20;99.33
5703;BME280;2876;51.738;10.050;2023-01-23T19:41:46;101336.00;;;2.49;98.31
5703;BME280;2876;51.738;10.050;2023-01-23T19:47:49;101336.41;;;2.43;98.45
5703;BME280;2876;51.738;10.050;2023-01-23T19:53:54;101338.09;;;2.44;98.30
5703;BME280;2876;51.738;10.050;2023-01-23T19:59:56;101344.78;;;2.49;97.96
5703;BME280;2876;51.738;10.050;2023-01-23T20:05:58;101358.00;;;2.37;98.01
5703;BME280;2876;51.738;10.050;2023-01-23T20:12:00;101360.78;;;2.48;97.63
5703;BME280;2876;51.738;10.050;2023-01-23T20:18:02;101373.44;;;2.57;97.67
5703;BME280;2876;51.738;10.050;2023-01-23T20:24:04;101380.38;;;2.60;97.23
5703;BME280;2876;51.738;10.050;2023-01-23T20:30:14;101377.97;;;2.69;96.33
5703;BME280;2876;51.738;10.050;2023-01-23T20:36:16;101373.16;;;2.62;95.36
5703;BME280;2876;51.738;10.050;2023-01-23T20:42:19;101373.72;;;2.67;96.19
5703;BME280;2876;51.738;10.050;2023-01-23T20:48:21;101370.97;;;2.68;95.47
5703;BME280;2876;51.738;10.050;2023-01-23T20:54:23;101374.19;;;2.73;95.33
5703;BME280;2876;51.738;10.050;2023-01-23T21:00:25;101369.41;;;2.93;94.43
5703;BME280;2876;51.738;10.050;2023-01-23T21:06:27;101373.91;;;2.78;94.32
5703;BME280;2876;51.738;10.050;2023-01-23T21:12:29;101387.72;;;2.69;95.19
5703;BME280;2876;51.738;10.050;2023-01-23T21:18:35;101383.16;;;2.71;94.85
5703;BME280;2876;51.738;10.050;2023-01-23T21:24:37;101380.34;;;2.74;94.95
5703;BME280;2876;51.738;10.050;2023-01-23T21:30:40;101370.69;;;2.59;95.17
5703;BME280;2876;51.738;10.050;2023-01-23T21:36:42;101374.41;;;2.56;95.32
5703;BME280;2876;51.738;10.050;2023-01-23T21:42:44;101373.34;;;2.59;95.33
5703;BME280;2876;51.738;10.050;2023-01-23T21:48:46;101374.13;;;2.61;95.43
5703;BME280;2876;51.738;10.050;2023-01-23T21:54:48;101383.81;;;2.74;94.87
5703;BME280;2876;51.738;10.050;2023-01-23T22:00:58;101385.41;;;2.50;95.36
5703;BME280;2876;51.738;10.050;2023-01-23T22:07:27;101385.84;;;2.57;95.32
5703;BME280;2876;51.738;10.050;2023-01-23T22:13:29;101378.75;;;2.57;95.45
5703;BME280;2876;51.738;10.050;2023-01-23T22:19:31;101376.22;;;2.56;95.29
5703;BME280;2876;51.738;10.050;2023-01-23T22:25:33;101382.16;;;2.59;95.45
5703;BME280;2876;51.738;10.050;2023-01-23T22:31:35;101382.75;;;2.50;95.65
5703;BME280;2876;51.738;10.050;2023-01-23T22:37:37;101392.56;;;2.48;95.63
5703;BME280;2876;51.738;10.050;2023-01-23T22:43:40;101385.09;;;2.40;95.82
5703;BME280;2876;51.738;10.050;2023-01-23T22:49:42;101373.00;;;2.36;95.99
5703;BME280;2876;51.738;10.050;2023-01-23T22:55:44;101385.75;;;2.44;95.93
5703;BME280;2876;51.738;10.050;2023-01-23T23:01:46;101380.00;;;2.51;95.90
5703;BME280;2876;51.738;10.050;2023-01-23T23:07:48;101382.94;;;2.47;95.57
5703;BME280;2876;51.738;10.050;2023-01-23T23:13:51;101385.97;;;2.41;95.63
5703;BME280;2876;51.738;10.050;2023-01-23T23:19:53;101386.31;;;2.49;95.57
5703;BME280;2876;51.738;10.050;2023-01-23T23:25:56;101382.16;;;2.45;95.71
5703;BME280;2876;51.738;10.050;2023-01-23T23:31:58;101379.81;;;2.40;95.69
5703;BME280;2876;51.738;10.050;2023-01-23T23:38:00;101379.41;;;2.61;95.51
5703;BME280;2876;51.738;10.050;2023-01-23T23:44:02;101379.81;;;2.40;95.13
5703;BME280;2876;51.738;10.050;2023-01-23T23:50:04;101371.84;;;2.40;95.63
5703;BME280;2876;51.738;10.050;2023-01-23T23:56:07;101381.81;;;2.37;94.91
